Time;durP1;ratioP1;P1;durP2;ratioP2;P2;SDS_P1;SDS_P2;PMS_P1;PMS_P2;Temp;Humidity;BMP_temperature;BMP_pressure;BME280_temperature;BME280_humidity;BME280_pressure;Samples;Min_cycle;Max_cycle;Signal;HPM_P1;HPM_P2
2022/04/03 00:00:53;;;;;;;7.47;3.53;;;3.10;99.90;;;2.79;71.07;101494.28;5206834;28;20045;-72
2022/04/03 00:03:25;;;;;;;6.88;3.72;;;3.10;99.90;;;2.79;70.58;101491.72;5206258;28;20057;-72
2022/04/03 00:05:57;;;;;;;6.85;3.63;;;3.10;99.90;;;2.79;70.75;101500.34;5206438;28;20071;-72
2022/04/03 00:08:31;;;;;;;5.80;3.08;;;3.10;99.90;;;2.80;70.67;101494.41;5206244;28;20054;-72
2022/04/03 00:11:03;;;;;;;8.88;3.70;;;3.10;99.90;;;2.80;70.91;101499.56;5206366;28;20107;-72
2022/04/03 00:13:36;;;;;;;6.28;3.38;;;3.10;99.90;;;2.81;70.80;101491.09;5206037;28;20056;-72
2022/04/03 00:16:10;;;;;;;5.45;3.13;;;3.10;99.90;;;2.81;70.38;101493.66;5206354;28;20053;-72
2022/04/03 00:18:42;;;;;;;5.82;3.65;;;3.10;99.90;;;2.82;70.37;101495.44;5206076;28;20537;-72
2022/04/03 00:21:14;;;;;;;7.32;3.85;;;3.10;99.90;;;2.83;70.44;101493.75;5206196;28;20132;-72
2022/04/03 00:23:48;;;;;;;6.43;3.33;;;3.10;99.90;;;2.84;70.68;101498.13;5205972;28;20049;-72
2022/04/03 00:26:20;;;;;;;5.35;3.03;;;3.10;99.90;;;2.84;71.10;101493.88;5205910;28;20052;-72
2022/04/03 00:28:52;;;;;;;5.35;3.00;;;3.10;99.90;;;2.85;71.39;101505.97;5205728;28;20049;-72
2022/04/03 00:31:26;;;;;;;5.03;3.03;;;3.10;99.90;;;2.85;71.64;101497.34;5205479;28;20049;-72
2022/04/03 00:33:58;;;;;;;5.32;3.03;;;3.10;99.90;;;2.86;71.25;101505.19;5205924;28;20635;-72
2022/04/03 00:36:30;;;;;;;6.38;3.35;;;3.10;99.90;;;2.86;71.34;101497.44;5205690;28;20057;-72
2022/04/03 00:39:03;;;;;;;5.75;2.90;;;3.10;99.90;;;2.89;71.47;101505.44;5205928;28;20049;-72
2022/04/03 00:41:36;;;;;;;8.07;3.42;;;3.20;99.90;;;2.93;71.35;101503.97;5204895;28;20136;-72
2022/04/03 00:44:08;;;;;;;5.93;3.72;;;3.20;99.90;;;2.94;70.77;101509.25;5205597;28;20050;-72
2022/04/03 00:46:42;;;;;;;7.05;3.47;;;3.20;99.90;;;2.95;70.82;101505.91;5205843;28;20059;-72
2022/04/03 00:49:14;;;;;;;7.15;3.63;;;3.20;99.90;;;2.96;71.37;101505.13;5205371;28;20055;-72
2022/04/03 00:51:46;;;;;;;7.05;3.55;;;3.20;99.90;;;2.95;71.27;101502.44;5205313;28;20049;-72
2022/04/03 00:54:18;;;;;;;7.13;3.17;;;3.20;99.90;;;2.91;70.96;101509.00;5205832;28;20080;-72
2022/04/03 00:56:50;;;;;;;7.95;3.35;;;3.20;99.90;;;2.89;70.85;101508.00;5205629;28;20053;-72
2022/04/03 00:59:23;;;;;;;5.35;2.97;;;3.20;99.90;;;2.88;71.10;101513.06;5206044;28;20071;-72
2022/04/03 01:01:56;;;;;;;5.80;2.97;;;3.20;99.90;;;2.88;71.01;101501.06;5205327;28;20486;-72
2022/04/03 01:04:28;;;;;;;6.07;3.40;;;3.20;99.90;;;2.89;70.66;101514.84;5205293;28;20500;-72
2022/04/03 01:07:00;;;;;;;8.15;3.58;;;3.20;99.90;;;2.88;70.67;101513.06;5205481;28;20080;-72
2022/04/03 01:09:33;;;;;;;7.85;3.25;;;3.10;99.90;;;2.89;70.44;101515.75;5205279;28;20401;-72
2022/04/03 01:12:06;;;;;;;5.13;2.95;;;3.10;99.90;;;2.90;70.34;101511.47;5205183;28;20486;-72
2022/04/03 01:14:42;;;;;;;4.93;3.22;;;3.20;99.90;;;2.92;69.76;101509.91;5205220;28;20045;-72
2022/04/03 01:17:16;;;;;;;6.60;2.92;;;3.20;99.90;;;2.93;70.03;101512.63;5206073;28;20060;-72
2022/04/03 01:19:48;;;;;;;6.10;2.95;;;3.20;99.90;;;2.92;69.02;101510.81;5205161;28;20060;-72
2022/04/03 01:22:20;;;;;;;4.80;2.42;;;3.20;99.90;;;2.95;69.01;101505.00;5205378;28;20049;-72
2022/04/03 01:24:56;;;;;;;5.05;2.90;;;3.20;99.90;;;2.96;69.05;101501.66;5205217;28;20474;-72
2022/04/03 01:27:28;;;;;;;5.60;3.50;;;3.20;99.90;;;2.97;69.04;101509.47;5205430;28;20053;-72
2022/04/03 01:30:00;;;;;;;4.97;2.92;;;3.20;99.90;;;2.99;68.88;101507.00;5205808;28;20053;-72
2022/04/03 01:32:33;;;;;;;5.85;3.15;;;3.20;99.90;;;3.01;68.69;101504.59;5205031;28;20417;-72
2022/04/03 01:35:06;;;;;;;4.28;2.47;;;3.20;99.90;;;3.00;68.04;101508.84;5205375;28;20136;-72
2022/04/03 01:37:38;;;;;;;5.30;2.72;;;3.30;99.90;;;3.01;67.56;101512.31;5205580;28;20500;-72
2022/04/03 01:40:13;;;;;;;5.00;2.95;;;3.30;99.90;;;3.02;67.76;101508.94;5204911;28;20050;-72
2022/04/03 01:42:45;;;;;;;5.65;2.88;;;3.30;99.90;;;3.03;67.36;101511.63;5204756;28;20132;-72
2022/04/03 01:45:17;;;;;;;5.70;2.92;;;3.30;99.90;;;3.03;66.76;101508.16;5204728;28;20053;-72
2022/04/03 01:47:49;;;;;;;5.70;2.72;;;3.30;99.90;;;3.04;66.46;101503.13;5205016;28;20393;-72
2022/04/03 01:50:21;;;;;;;5.00;2.90;;;3.30;99.90;;;3.06;66.79;101504.13;5204876;28;20076;-72
2022/04/03 01:52:53;;;;;;;5.57;2.72;;;3.30;99.90;;;3.09;67.09;101499.22;5205475;28;20051;-72
2022/04/03 01:55:28;;;;;;;6.05;2.78;;;3.40;99.90;;;3.12;66.93;101504.59;5208971;28;20132;-72
2022/04/03 01:58:00;;;;;;;3.63;2.47;;;3.40;99.90;;;3.15;66.70;101503.94;5208927;28;20061;-72
2022/04/03 02:00:33;;;;;;;6.10;2.45;;;3.40;99.90;;;3.18;66.70;101499.00;5208582;28;20045;-73
2022/04/03 02:03:05;;;;;;;4.55;2.65;;;3.40;99.90;;;3.17;66.48;101503.25;5208720;28;20045;-72
2022/04/03 02:05:38;;;;;;;5.53;2.75;;;3.40;99.90;;;3.15;66.36;101504.84;5208578;28;20052;-72
2022/04/03 02:08:10;;;;;;;6.05;3.00;;;3.50;99.90;;;3.17;66.52;101502.38;5208528;28;20056;-73
2022/04/03 02:10:44;;;;;;;6.05;2.67;;;3.40;99.90;;;3.19;66.42;101509.41;5208628;28;20049;-72
2022/04/03 02:13:16;;;;;;;5.63;2.70;;;3.40;99.90;;;3.21;66.17;101504.41;5208092;28;20060;-72
2022/04/03 02:15:48;;;;;;;5.07;2.50;;;3.50;99.90;;;3.21;66.89;101504.41;5208809;28;20049;-72
2022/04/03 02:18:20;;;;;;;7.30;3.55;;;3.50;99.90;;;3.21;66.74;101509.56;5208419;28;20383;-72
2022/04/03 02:20:52;;;;;;;5.18;2.72;;;3.50;99.90;;;3.21;67.25;101514.72;5208198;28;20410;-72
2022/04/03 02:23:24;;;;;;;5.95;2.90;;;3.40;99.90;;;3.20;67.95;101512.94;5207749;28;20050;-72
2022/04/03 02:25:58;;;;;;;4.45;2.83;;;3.50;99.90;;;3.18;67.89;101512.78;5208304;28;20050;-72
2022/04/03 02:28:30;;;;;;;5.32;3.03;;;3.40;99.90;;;3.18;68.01;101514.47;5208361;28;20122;-72
2022/04/03 02:31:02;;;;;;;6.82;3.15;;;3.40;99.90;;;3.16;68.29;101513.47;5207681;28;20061;-72
2022/04/03 02:33:34;;;;;;;5.85;3.00;;;3.40;99.90;;;3.14;69.00;101522.75;5208279;28;20053;-72
2022/04/03 02:36:06;;;;;;;5.97;3.05;;;3.40;99.90;;;3.11;69.32;101517.38;5208252;28;20042;-72
2022/04/03 02:38:39;;;;;;;6.57;3.17;;;3.40;99.90;;;3.09;69.61;101514.69;5208024;28;20049;-72
2022/04/03 02:41:14;;;;;;;5.78;2.90;;;3.40;99.90;;;3.08;69.80;101514.56;5207859;28;20173;-72
2022/04/03 02:43:46;;;;;;;5.15;3.03;;;3.30;99.90;;;3.08;69.76;101506.84;5207594;28;20091;-72
2022/04/03 02:46:18;;;;;;;6.50;2.72;;;3.30;99.90;;;3.08;70.13;101512.00;5207883;28;20128;-72
2022/04/03 02:48:50;;;;;;;7.53;3.08;;;3.30;99.90;;;3.07;70.13;101518.81;5207907;28;20513;-72
2022/04/03 02:51:22;;;;;;;6.90;3.38;;;3.30;99.90;;;3.06;70.76;101518.69;5207816;28;20447;-72
2022/04/03 02:53:54;;;;;;;5.30;2.83;;;3.30;99.90;;;3.05;71.31;101514.31;5209328;28;20499;-72
2022/04/03 02:56:27;;;;;;;5.68;3.13;;;3.30;99.90;;;3.05;71.50;101519.47;5207761;28;20509;-72
2022/04/03 02:58:59;;;;;;;6.05;3.15;;;3.30;99.90;;;3.05;71.83;101516.91;5207725;28;20140;-72
2022/04/03 03:01:31;;;;;;;5.05;3.08;;;3.30;99.90;;;3.03;71.78;101524.50;5207494;28;20140;-72
2022/04/03 03:04:03;;;;;;;7.30;2.97;;;3.30;99.90;;;3.01;71.49;101520.03;5207400;28;20050;-72
2022/04/03 03:06:35;;;;;;;5.68;3.30;;;3.20;99.90;;;2.99;71.56;101525.06;5207372;28;20479;-72
2022/04/03 03:09:07;;;;;;;6.05;3.50;;;3.30;99.90;;;2.97;71.54;101519.78;5207089;28;20049;-72
2022/04/03 03:11:41;;;;;;;6.57;3.05;;;3.20;99.90;;;2.97;71.97;101527.50;5208615;28;20045;-72
2022/04/03 03:14:13;;;;;;;5.10;2.67;;;3.20;99.90;;;2.96;71.89;101525.72;5207080;28;20100;-72
2022/04/03 03:16:45;;;;;;;6.35;3.05;;;3.20;99.90;;;2.93;72.35;101520.34;5207043;28;20046;-72
2022/04/03 03:19:17;;;;;;;6.32;3.03;;;3.20;99.90;;;2.92;72.58;101526.25;5206877;28;20081;-72
2022/04/03 03:21:49;;;;;;;5.45;2.85;;;3.20;99.90;;;2.92;72.76;101528.84;5206939;28;20042;-72
2022/04/03 03:24:21;;;;;;;6.20;3.13;;;3.20;99.90;;;2.92;73.19;101523.69;5206888;28;20096;-72
2022/04/03 03:26:54;;;;;;;5.30;3.08;;;3.20;99.90;;;2.91;72.67;101521.00;5206783;28;20046;-72
2022/04/03 03:29:26;;;;;;;4.32;2.85;;;3.20;99.90;;;2.90;73.56;101530.41;5206307;28;20060;-73
2022/04/03 03:31:58;;;;;;;7.68;2.63;;;3.20;99.90;;;2.85;73.29;101534.28;5206305;28;20057;-72
2022/04/03 03:34:30;;;;;;;5.35;3.08;;;3.10;99.90;;;2.85;73.14;101533.41;5206779;28;20049;-73
2022/04/03 03:37:02;;;;;;;6.60;5.38;;;3.10;99.90;;;2.83;73.51;101525.56;5206767;28;20045;-73
2022/04/03 03:39:34;;;;;;;10.60;3.20;;;3.10;99.90;;;2.82;73.33;101531.50;5206627;28;20051;-72
2022/04/03 03:42:08;;;;;;;7.78;3.50;;;3.10;99.90;;;2.80;73.56;101530.47;5205992;28;20060;-72
2022/04/03 03:44:41;;;;;;;5.57;3.60;;;3.10;99.90;;;2.80;73.17;101529.56;5206414;28;20045;-73
2022/04/03 03:47:13;;;;;;;8.10;3.50;;;3.10;99.90;;;2.81;73.15;101527.13;5206279;28;20055;-73
2022/04/03 03:49:45;;;;;;;9.30;3.60;;;3.00;99.90;;;2.81;72.85;101531.38;5206343;28;20067;-72
2022/04/03 03:52:17;;;;;;;6.10;3.47;;;3.10;99.90;;;2.79;72.73;101532.91;5206064;28;20079;-72
2022/04/03 03:54:49;;;;;;;7.82;3.83;;;3.10;99.90;;;2.79;72.72;101536.41;5206118;28;20062;-72
2022/04/03 03:57:22;;;;;;;8.90;3.83;;;3.10;99.90;;;2.75;72.54;101531.81;5206074;28;20137;-73
2022/04/03 03:59:54;;;;;;;7.75;3.90;;;3.00;99.90;;;2.74;72.70;101540.31;5205872;28;20053;-72
2022/04/03 04:02:26;;;;;;;9.20;3.63;;;3.00;99.90;;;2.75;72.30;101534.38;5205963;28;20073;-73
2022/04/03 04:04:58;;;;;;;5.82;3.03;;;3.00;99.90;;;2.73;72.82;101523.94;5205913;28;20049;-72
2022/04/03 04:07:39;;;;;;;5.10;3.22;;;3.00;99.90;;;2.72;73.30;101547.00;5205875;28;20450;-72
2022/04/03 04:10:13;;;;;;;6.68;3.40;;;3.00;99.90;;;2.70;73.90;101538.28;5206106;28;20347;-72
2022/04/03 04:12:48;;;;;;;6.47;3.10;;;3.00;99.90;;;2.68;73.82;101542.41;5205474;28;20136;-72
2022/04/03 04:15:20;;;;;;;5.32;3.00;;;3.00;99.90;;;2.67;74.56;101538.00;5205813;28;20132;-72
2022/04/03 04:17:55;;;;;;;5.97;3.22;;;3.00;99.90;;;2.67;74.46;101549.25;5204977;28;20406;-73
2022/04/03 04:20:27;;;;;;;6.57;3.10;;;2.90;99.90;;;2.66;74.47;101546.50;5205694;28;20049;-72
2022/04/03 04:23:00;;;;;;;8.98;3.92;;;2.90;99.90;;;2.64;75.06;101548.97;5205379;28;20103;-72
2022/04/03 04:25:32;;;;;;;6.90;3.25;;;2.90;99.90;;;2.61;74.53;101560.72;5205623;28;20059;-73
2022/04/03 04:28:07;;;;;;;5.15;3.40;;;2.90;99.90;;;2.59;74.57;101559.69;5205810;28;20049;-72
2022/04/03 04:30:39;;;;;;;5.75;3.03;;;2.90;99.90;;;2.57;75.33;101561.25;5205278;28;20054;-72
2022/04/03 04:33:11;;;;;;;5.25;3.15;;;2.90;99.90;;;2.56;76.46;101564.63;5268814;23;20059;-69
2022/04/03 04:35:43;;;;;;;5.72;3.15;;;2.90;99.90;;;2.56;76.34;101569.75;5205989;28;20046;-69
2022/04/03 04:38:15;;;;;;;5.82;3.38;;;2.80;99.90;;;2.53;77.00;101565.25;5205997;28;20053;-70
2022/04/03 04:40:47;;;;;;;7.55;3.60;;;2.80;99.90;;;2.53;77.16;101570.41;5205662;28;20053;-69
2022/04/03 04:43:21;;;;;;;4.82;2.88;;;2.80;99.90;;;2.52;77.50;101572.84;5206078;28;20052;-69
2022/04/03 04:45:53;;;;;;;6.15;3.13;;;2.80;99.90;;;2.51;77.73;101571.06;5206107;28;20413;-69
2022/04/03 04:48:25;;;;;;;5.97;3.17;;;2.80;99.90;;;2.51;77.78;101573.63;5205778;28;20049;-68
2022/04/03 04:50:56;;;;;;;6.20;3.22;;;2.80;99.90;;;2.50;78.21;101583.03;5205651;28;20053;-69
2022/04/03 04:53:28;;;;;;;6.18;3.53;;;2.80;99.90;;;2.49;78.55;101581.25;5205590;28;20056;-69
2022/04/03 04:56:01;;;;;;;7.40;3.55;;;2.80;99.90;;;2.48;78.54;101586.25;5205901;28;20048;-68
2022/04/03 04:58:34;;;;;;;6.10;3.30;;;2.80;99.90;;;2.48;79.25;101581.09;5205983;28;20057;-69
2022/04/03 05:01:06;;;;;;;7.70;3.53;;;2.80;99.90;;;2.47;79.00;101584.47;5205819;28;20394;-69
2022/04/03 05:03:38;;;;;;;6.18;3.35;;;2.80;99.90;;;2.49;79.45;101582.91;5205459;28;20046;-70
2022/04/03 05:06:15;;;;;;;6.18;4.00;;;2.80;99.90;;;2.50;80.02;101589.88;5205330;28;20069;-69
2022/04/03 05:08:47;;;;;;;6.88;3.97;;;2.80;99.90;;;2.49;79.64;101591.53;5205770;28;20076;-68
2022/04/03 05:11:20;;;;;;;6.82;3.40;;;2.80;99.90;;;2.51;79.62;101596.81;5205681;28;20478;-69
2022/04/03 05:13:53;;;;;;;5.72;3.17;;;2.80;99.90;;;2.52;80.30;101596.03;5205988;28;20045;-69
2022/04/03 05:16:25;;;;;;;8.63;3.85;;;2.80;99.90;;;2.52;80.22;101594.34;5205768;28;20041;-69
2022/04/03 05:18:58;;;;;;;6.82;3.13;;;2.80;99.90;;;2.53;80.34;101601.28;5205749;28;20049;-69
2022/04/03 05:21:30;;;;;;;8.43;3.95;;;2.80;99.90;;;2.56;80.65;101598.97;5205803;28;20049;-69
2022/04/03 05:24:02;;;;;;;6.65;3.58;;;2.80;99.90;;;2.56;81.12;101613.53;5205608;28;20053;-69
2022/04/03 05:26:35;;;;;;;6.60;3.42;;;2.90;99.90;;;2.56;81.39;101616.09;5205017;28;20387;-69
2022/04/03 05:29:10;;;;;;;5.93;3.42;;;2.80;99.90;;;2.56;81.26;101616.09;5208412;28;20064;-69
2022/04/03 05:31:42;;;;;;;6.65;3.70;;;2.90;99.90;;;2.56;81.36;101616.09;5209600;28;20077;-69
2022/04/03 05:34:13;;;;;;;8.18;4.25;;;2.90;99.90;;;2.56;81.63;101619.56;5209409;28;20041;-69
2022/04/03 05:36:45;;;;;;;6.65;3.83;;;2.80;99.90;;;2.56;81.54;101616.09;5209550;28;20045;-69
2022/04/03 05:39:17;;;;;;;8.25;3.45;;;2.90;99.90;;;2.60;81.56;101618.13;5209404;28;20049;-69
2022/04/03 05:41:54;;;;;;;9.18;3.55;;;2.90;99.90;;;2.64;81.22;101625.31;5209165;28;20052;-69
2022/04/03 05:44:27;;;;;;;8.02;3.78;;;2.90;99.90;;;2.64;81.61;101626.22;5209434;28;20049;-69
2022/04/03 05:46:59;;;;;;;9.70;3.60;;;2.90;99.90;;;2.65;81.78;101632.25;5209460;28;20056;-68
2022/04/03 05:49:31;;;;;;;5.80;3.13;;;2.90;99.90;;;2.67;81.78;101620.38;5209388;28;20045;-69
2022/04/03 05:52:04;;;;;;;6.65;3.30;;;2.90;99.90;;;2.69;81.69;101635.22;5208951;28;20056;-69
2022/04/03 05:54:36;;;;;;;8.15;3.85;;;2.90;99.90;;;2.72;81.73;101630.28;5209159;28;20045;-69
2022/04/03 05:57:10;;;;;;;4.95;3.65;;;3.00;99.90;;;2.75;81.79;101634.81;5209186;28;20405;-69
2022/04/03 05:59:43;;;;;;;9.05;4.43;;;3.00;99.90;;;2.84;81.67;101639.75;5208388;28;20054;-68
2022/04/03 06:02:15;;;;;;;8.13;3.95;;;3.10;99.90;;;2.90;81.00;101645.41;5207872;28;20429;-68
2022/04/03 06:04:47;;;;;;;7.13;4.03;;;3.10;99.90;;;2.98;80.71;101645.22;5208560;28;20076;-69
2022/04/03 06:07:19;;;;;;;8.23;4.03;;;3.20;99.90;;;3.14;80.80;101636.13;5208401;28;20404;-68
2022/04/03 06:09:51;;;;;;;8.88;4.28;;;3.30;99.90;;;3.36;80.28;101642.16;5207807;28;20050;-68
2022/04/03 06:12:23;;;;;;;7.32;4.13;;;3.40;99.90;;;3.57;79.57;101642.00;5207730;28;20045;-68
2022/04/03 06:14:57;;;;;;;11.35;4.68;;;3.60;99.90;;;3.76;78.67;101638.34;5208047;28;20060;-68
2022/04/03 06:17:30;;;;;;;10.65;4.90;;;3.80;99.90;;;3.99;77.57;101646.91;5208399;28;20041;-68
2022/04/03 06:20:01;;;;;;;8.40;4.25;;;3.90;99.90;;;4.23;76.48;101642.66;5208235;28;20148;-68
2022/04/03 06:22:33;;;;;;;7.47;4.22;;;4.10;99.90;;;4.80;75.62;101639.91;5207910;28;20156;-68
2022/04/03 06:25:07;;;;;;;8.68;3.63;;;4.40;99.90;;;5.51;72.48;101636.28;5207835;28;20046;-69
2022/04/03 06:27:39;;;;;;;8.00;4.18;;;4.80;99.90;;;5.99;69.98;101645.59;5208031;28;20042;-69
2022/04/03 06:30:14;;;;;;;7.40;3.92;;;5.20;99.90;;;6.66;67.32;101655.19;5207599;28;20056;-69
2022/04/03 06:32:46;;;;;;;6.60;3.70;;;5.70;99.90;;;7.39;63.50;101645.91;5207424;28;20056;-69
2022/04/03 06:35:19;;;;;;;6.38;3.20;;;6.20;99.90;;;7.31;61.17;101652.34;5207951;28;20053;-69
2022/04/03 06:37:51;;;;;;;8.88;3.65;;;6.50;99.90;;;6.96;60.02;101656.22;5208095;28;20136;-69
2022/04/03 06:40:23;;;;;;;7.10;3.55;;;6.50;99.00;;;6.83;60.52;101656.25;5206875;28;20553;-69
2022/04/03 06:42:56;;;;;;;8.10;3.95;;;6.40;98.70;;;7.08;60.54;101659.59;5207296;28;20045;-69
2022/04/03 06:45:31;;;;;;;7.35;3.92;;;6.50;98.90;;;8.33;58.59;101662.72;5207266;28;20136;-69
2022/04/03 06:48:03;;;;;;;5.18;3.55;;;7.10;99.10;;;9.16;55.95;101660.47;5207531;28;20045;-69
2022/04/03 06:50:35;;;;;;;14.05;5.53;;;7.80;97.60;;;9.76;53.16;101668.03;5207912;28;20600;-69
2022/04/03 06:53:07;;;;;;;5.78;3.25;;;8.30;95.20;;;9.44;51.59;101663.75;5207389;28;20065;-69
2022/04/03 06:55:39;;;;;;;6.97;3.53;;;8.30;92.50;;;8.77;52.98;101661.78;5207314;28;20057;-69
2022/04/03 06:58:11;;;;;;;6.88;3.90;;;8.10;92.00;;;8.14;54.08;101665.97;5207695;28;20049;-69
2022/04/03 07:00:44;;;;;;;7.47;4.00;;;7.80;92.00;;;7.64;55.89;101669.06;5207008;28;20056;-69
2022/04/03 07:03:16;;;;;;;6.05;3.42;;;7.50;92.60;;;7.24;56.28;101679.59;5206982;28;20052;-69
2022/04/03 07:05:49;;;;;;;6.00;3.45;;;7.20;93.10;;;6.89;57.92;101674.78;5207082;28;20505;-69
2022/04/03 07:08:21;;;;;;;5.68;3.25;;;6.90;93.70;;;6.77;58.09;101679.19;5207049;28;20148;-69
2022/04/03 07:10:53;;;;;;;7.00;3.67;;;6.70;94.50;;;6.69;59.21;101681.28;5206921;28;20050;-69
2022/04/03 07:13:25;;;;;;;6.85;3.70;;;6.60;95.40;;;6.70;59.91;101688.25;5206703;28;20050;-69
2022/04/03 07:15:59;;;;;;;7.30;3.65;;;6.50;96.10;;;6.72;60.02;101686.69;5207360;28;20045;-69
2022/04/03 07:18:31;;;;;;;7.57;3.65;;;6.50;96.50;;;6.91;59.87;101700.78;5207230;28;20050;-69
2022/04/03 07:21:03;;;;;;;7.75;3.70;;;6.60;96.80;;;7.10;60.13;101689.88;5207067;28;20077;-69
2022/04/03 07:23:35;;;;;;;7.95;3.60;;;6.80;96.80;;;7.43;58.81;101693.69;5206414;28;20061;-69
2022/04/03 07:26:07;;;;;;;6.30;3.45;;;6.90;96.70;;;7.56;57.38;101683.25;5206653;28;20054;-69
2022/04/03 07:28:39;;;;;;;9.02;3.70;;;7.10;95.70;;;7.67;56.79;101683.91;5207024;28;20439;-69
2022/04/03 07:31:12;;;;;;;9.80;3.78;;;7.20;95.00;;;8.08;56.02;101683.78;5206473;28;20080;-69
2022/04/03 07:33:44;;;;;;;6.85;3.33;;;7.40;94.70;;;8.24;54.40;101685.59;5206740;28;20426;-69
2022/04/03 07:36:19;;;;;;;7.72;3.63;;;7.60;93.70;;;8.84;54.38;101690.81;5206421;28;20041;-69
2022/04/03 07:38:52;;;;;;;7.47;4.13;;;7.80;93.80;;;11.13;49.75;101696.53;5206716;28;20478;-69
2022/04/03 07:41:24;;;;;;;5.55;3.15;;;8.90;92.90;;;13.46;42.88;101684.63;5206409;28;20057;-69
2022/04/03 07:43:56;;;;;;;7.88;3.47;;;10.50;84.40;;;15.08;38.74;101699.78;5206187;28;20465;-69
2022/04/03 07:46:29;;;;;;;5.72;3.80;;;11.90;74.80;;;16.15;36.08;101698.50;5206247;28;20398;-69
2022/04/03 07:49:01;;;;;;;6.00;3.60;;;12.90;68.10;;;16.31;34.46;101706.81;5206905;28;20041;-69
2022/04/03 07:51:34;;;;;;;7.25;3.78;;;13.40;62.90;;;17.04;34.38;101704.25;5205759;28;20056;-70
2022/04/03 07:54:06;;;;;;;6.35;3.10;;;14.00;62.90;;;18.08;32.50;101713.47;5206105;28;20135;-70
2022/04/03 07:56:38;;;;;;;5.78;3.58;;;14.70;60.50;;;19.25;30.87;101715.41;5206201;28;20046;-70
2022/04/03 07:59:10;;;;;;;7.07;3.50;;;15.70;58.30;;;19.86;29.28;101717.94;5206236;28;20144;-70
2022/04/03 08:01:43;;;;;;;5.05;3.00;;;16.30;55.90;;;20.69;27.41;101714.38;5205863;28;20045;-70
2022/04/03 08:04:16;;;;;;;7.78;3.47;;;17.10;52.90;;;21.19;26.36;101718.22;5206018;28;20056;-70
2022/04/03 08:06:48;;;;;;;8.60;4.03;;;17.50;50.90;;;21.57;25.70;101718.44;5205944;28;20045;-66
2022/04/03 08:09:20;;;;;;;4.30;2.50;;;18.00;49.90;;;21.86;28.29;101714.13;5205864;28;20053;-63
2022/04/03 08:11:52;;;;;;;3.35;2.40;;;18.40;53.10;;;22.12;27.87;101724.84;5205918;28;20049;-64
2022/04/03 08:14:26;;;;;;;6.82;3.10;;;18.80;51.90;;;22.58;26.13;101722.25;5205897;28;20533;-65
2022/04/03 08:17:00;;;;;;;4.22;3.13;;;19.30;50.00;;;22.79;23.91;101718.69;5205908;28;20073;-66
2022/04/03 08:19:32;;;;;;;7.65;3.80;;;19.50;46.40;;;22.61;23.77;101724.88;5206010;28;20049;-66
2022/04/03 08:22:04;;;;;;;5.28;3.05;;;19.40;45.70;;;22.59;23.86;101731.09;5205399;28;20057;-66
2022/04/03 08:24:36;;;;;;;6.57;3.33;;;19.30;45.90;;;22.62;23.55;101731.09;5205870;28;20049;-66
2022/04/03 08:27:08;;;;;;;6.22;3.78;;;19.20;45.80;;;22.23;23.62;101727.50;5205638;28;20052;-67
2022/04/03 08:29:40;;;;;;;5.65;3.50;;;18.90;45.40;;;22.13;23.75;101725.75;5205848;28;20060;-65
2022/04/03 08:32:14;;;;;;;6.47;3.95;;;18.80;45.50;;;22.15;23.68;101721.31;5205195;28;20136;-65
2022/04/03 08:34:46;;;;;;;5.78;3.53;;;18.70;45.60;;;22.27;23.34;101728.41;5205510;28;20053;-64
2022/04/03 08:37:18;;;;;;;5.57;3.30;;;18.80;45.00;;;22.28;23.66;101728.41;5205407;28;20053;-65
2022/04/03 08:39:50;;;;;;;6.95;3.42;;;18.80;45.20;;;22.43;22.52;101731.09;5205401;28;20053;-64
2022/04/03 08:42:22;;;;;;;6.45;3.33;;;18.90;44.10;;;21.93;22.99;101723.00;5205450;28;20148;-65
2022/04/03 08:44:54;;;;;;;5.13;3.15;;;18.70;44.10;;;21.85;22.97;101725.66;5205373;28;20266;-64
2022/04/03 08:47:30;;;;;;;5.38;3.20;;;18.60;44.10;;;21.87;22.53;101723.88;5205539;28;20402;-65
2022/04/03 08:50:03;;;;;;;5.43;2.70;;;18.60;43.50;;;21.68;22.83;101717.63;5205509;28;20053;-65
2022/04/03 08:52:37;;;;;;;6.05;3.40;;;18.50;43.70;;;21.49;23.04;101723.72;5205605;28;20127;-64
2022/04/03 08:55:10;;;;;;;4.43;2.85;;;18.40;43.90;;;21.20;23.14;101723.56;5204672;28;20253;-65
2022/04/03 08:57:42;;;;;;;3.65;2.63;;;18.20;43.90;;;21.07;23.46;101722.59;5205278;28;20486;-65
2022/04/03 09:00:15;;;;;;;4.47;3.00;;;18.00;44.30;;;20.34;23.24;101716.66;5205068;28;20046;-64
2022/04/03 09:02:50;;;;;;;5.75;2.95;;;17.60;43.20;;;19.82;23.75;101728.47;5204586;28;20481;-64
2022/04/03 09:05:22;;;;;;;4.80;2.90;;;17.30;43.90;;;19.08;24.12;101724.81;5205036;28;20046;-64
2022/04/03 09:08:01;;;;;;;4.75;3.00;;;16.80;43.70;;;18.80;24.95;101717.38;5204866;28;20510;-64
2022/04/03 09:10:34;;;;;;;5.57;2.90;;;16.70;44.50;;;18.72;24.76;101725.16;5205108;28;20132;-65
2022/04/03 09:13:06;;;;;;;4.78;3.13;;;16.70;44.60;;;18.46;25.09;101722.06;5205079;28;20049;-66
2022/04/03 09:15:38;;;;;;;5.55;2.70;;;16.70;44.40;;;17.92;25.39;101721.91;5204930;28;20056;-66
2022/04/03 09:18:13;;;;;;;6.28;3.10;;;16.60;44.10;;;17.09;26.50;101723.69;5204861;28;20057;-66
2022/04/03 09:20:45;;;;;;;5.38;2.60;;;16.20;44.60;;;16.48;27.14;101716.88;5204962;28;20049;-66
2022/04/03 09:23:20;;;;;;;3.75;2.50;;;15.80;44.90;;;16.01;28.04;101721.81;5204563;28;20140;-66
2022/04/03 09:25:52;;;;;;;5.88;3.20;;;15.50;45.50;;;15.66;28.86;101717.31;5204984;28;20045;-66
2022/04/03 09:28:39;;;;;;;5.18;3.15;;;15.30;46.20;;;15.47;29.38;101711.50;5205301;28;20072;-65
2022/04/03 09:31:25;;;;;;;5.03;2.65;;;15.10;46.80;;;15.01;29.23;101718.81;5204926;28;20445;-65
2022/04/03 09:34:03;;;;;;;4.55;2.72;;;14.70;46.50;;;14.17;30.36;101708.13;5204668;28;20057;-65
2022/04/03 09:36:37;;;;;;;6.70;3.03;;;14.10;47.50;;;14.02;31.35;101711.13;5204768;28;20434;-65
2022/04/03 09:39:14;;;;;;;7.80;3.03;;;13.80;48.70;;;13.84;31.53;101707.00;5204706;28;20100;-65
2022/04/03 09:41:58;;;;;;;5.88;3.03;;;13.60;48.90;;;13.29;30.94;101710.19;5204520;28;20487;-65
2022/04/03 09:44:33;;;;;;;4.03;2.30;;;13.10;48.10;;;12.54;31.53;101706.28;5204796;28;20517;-65
2022/04/03 09:47:21;;;;;;;4.75;2.45;;;12.50;48.40;;;12.01;32.26;101711.88;5204744;28;20095;-65
2022/04/03 09:50:00;;;;;;;5.75;3.10;;;12.00;48.90;;;11.74;33.03;101709.81;5204441;28;20058;-65
2022/04/03 09:52:43;;;;;;;4.25;2.60;;;11.70;50.20;;;11.45;32.47;101718.91;5204489;28;20045;-65
2022/04/03 09:55:20;;;;;;;6.47;3.05;;;11.30;50.10;;;11.14;32.84;101721.81;5204679;28;20050;-64
2022/04/03 09:58:04;;;;;;;6.00;2.75;;;11.00;49.60;;;10.85;33.50;101715.22;5204841;28;20081;-65
2022/04/03 10:00:40;;;;;;;4.45;2.40;;;10.80;50.60;;;10.67;33.94;101706.50;5204868;28;20668;-65
2022/04/03 10:03:14;;;;;;;4.63;2.80;;;10.60;50.70;;;10.34;34.00;101701.41;5204517;28;20086;-65
2022/04/03 10:05:48;;;;;;;6.72;3.13;;;10.30;51.10;;;10.15;34.79;101701.25;5204423;28;20042;-64
2022/04/03 10:08:21;;;;;;;5.00;2.85;;;10.10;51.80;;;10.04;34.92;101705.91;5204997;28;20612;-64
2022/04/03 10:10:55;;;;;;;6.55;3.65;;;10.00;51.90;;;9.89;35.17;101700.81;5204581;28;20413;-64
2022/04/03 10:13:28;;;;;;;6.30;2.83;;;9.80;52.50;;;9.88;35.50;101698.13;5204428;28;20049;-65
2022/04/03 10:16:00;;;;;;;4.40;2.90;;;9.80;52.80;;;9.90;34.61;101697.38;5206833;28;20407;-64
2022/04/03 10:18:33;;;;;;;3.30;2.40;;;9.80;51.80;;;9.87;34.51;101694.63;5207937;28;20068;-64
2022/04/03 10:21:12;;;;;;;4.15;2.60;;;9.70;51.50;;;9.89;34.53;101695.59;5207771;28;20056;-64
2022/04/03 10:23:47;;;;;;;5.95;2.65;;;9.70;51.70;;;9.97;34.82;101691.69;5208196;28;20385;-64
2022/04/03 10:26:21;;;;;;;3.72;2.80;;;9.80;51.90;;;10.20;35.38;101692.88;5208270;28;20402;-65
2022/04/03 10:28:56;;;;;;;6.50;3.17;;;9.90;52.90;;;10.62;35.24;101688.00;5207534;28;20046;-65
2022/04/03 10:31:28;;;;;;;6.15;3.60;;;10.20;53.00;;;11.04;35.15;101694.41;5207313;28;20469;-65
2022/04/03 10:34:00;;;;;;;6.07;2.90;;;10.50;53.20;;;11.22;34.80;101688.28;5207822;28;20472;-64
2022/04/03 10:36:38;;;;;;;4.30;3.10;;;10.70;52.70;;;11.52;34.29;101684.41;5207809;28;20414;-65
2022/04/03 10:39:10;;;;;;;4.43;2.67;;;10.90;52.30;;;11.90;32.95;101682.66;5207606;28;20536;-64
2022/04/03 10:41:43;;;;;;;3.08;2.33;;;11.20;51.30;;;11.89;32.84;101692.22;5207218;28;20056;-65
2022/04/03 10:44:19;;;;;;;3.72;2.33;;;11.40;50.70;;;11.94;33.04;101685.47;5207806;28;20410;-65
2022/04/03 10:47:22;;;;;;;4.50;2.35;;;11.50;50.70;;;11.92;32.48;101675.75;5207489;28;20065;-64